Time,TemperatureF,DewpointF,PressureIn,WindDirection,WindDirectionDegrees,WindSpeedMPH,WindSpeedGustMPH,Humidity,HourlyPrecipIn,Conditions,Clouds,dailyrainin,SoftwareType,DateUTC
2013-03-16 00:08:00,60.5,56.0,30.83,South,178,4.0,-999.0,86,-99.99,,,0.00,weatherlink.com 1.10,2013-03-16 05:08:00,
2013-03-16 00:23:00,60.3,57.0,30.82,South,175,3.0,-999.0,87,-99.99,,,0.00,weatherlink.com 1.10,2013-03-16 05:23:00,
2013-03-16 00:38:00,60.0,57.0,30.82,South,184,5.0,-999.0,88,-99.99,,,0.00,weatherlink.com 1.10,2013-03-16 05:38:00,
2013-03-16 00:58:00,59.8,57.0,30.82,South,191,7.0,-999.0,89,-99.99,,,0.00,weatherlink.com 1.10,2013-03-16 05:58:00,
2013-03-16 01:07:00,59.5,56.0,30.82,South,178,5.0,-999.0,89,-99.99,,,0.00,weatherlink.com 1.10,2013-03-16 06:07:00,
2013-03-16 01:22:00,59.3,56.0,30.82,South,182,5.0,-999.0,90,-99.99,,,0.00,weatherlink.com 1.10,2013-03-16 06:22:00,
2013-03-16 01:38:00,58.9,56.0,30.81,South,175,6.0,-999.0,90,-99.99,,,0.00,weatherlink.com 1.10,2013-03-16 06:38:00,
2013-03-16 01:59:00,58.7,56.0,30.81,South,191,10.0,-999.0,91,-99.99,,,0.00,weatherlink.com 1.10,2013-03-16 06:59:00,
2013-03-16 02:08:00,58.4,56.0,30.80,SSW,197,6.0,-999.0,91,-99.99,,,0.00,weatherlink.com 1.10,2013-03-16 07:08:00,
2013-03-16 02:23:00,58.1,56.0,30.80,SSW,192,7.0,-999.0,92,-99.99,,,0.00,weatherlink.com 1.10,2013-03-16 07:23:00,
2013-03-16 02:38:00,58.0,56.0,30.79,SSW,198,5.0,-999.0,92,-99.99,,,0.00,weatherlink.com 1.10,2013-03-16 07:38:00,
2013-03-16 02:59:00,57.7,55.0,30.79,South,186,3.0,-999.0,92,-99.99,,,0.00,weatherlink.com 1.10,2013-03-16 07:59:00,
2013-03-16 03:08:00,57.5,55.0,30.79,South,183,4.0,-999.0,92,-99.99,,,0.00,weatherlink.com 1.10,2013-03-16 08:08:00,
2013-03-16 03:23:00,57.4,55.0,30.78,SSE,168,5.0,-999.0,92,-99.99,,,0.00,weatherlink.com 1.10,2013-03-16 08:23:00,
2013-03-16 03:38:00,57.2,55.0,30.77,SSW,200,5.0,-999.0,93,-99.99,,,0.00,weatherlink.com 1.10,2013-03-16 08:38:00,
2013-03-16 03:59:00,56.9,55.0,30.77,SSW,198,4.0,-999.0,93,-99.99,,,0.00,weatherlink.com 1.10,2013-03-16 08:59:00,
2013-03-16 04:08:00,56.9,55.0,30.77,SSW,205,5.0,-999.0,93,-99.99,,,0.00,weatherlink.com 1.10,2013-03-16 09:08:00,
2013-03-16 04:23:00,56.8,55.0,30.76,South,183,7.0,-999.0,93,-99.99,,,0.00,weatherlink.com 1.10,2013-03-16 09:23:00,
2013-03-16 04:38:00,56.8,55.0,30.75,South,187,6.0,-999.0,93,-99.99,,,0.00,weatherlink.com 1.10,2013-03-16 09:38:00,
2013-03-16 04:59:00,56.9,55.0,30.75,South,186,5.0,-999.0,93,-99.99,,,0.00,weatherlink.com 1.10,2013-03-16 09:59:00,
2013-03-16 05:08:00,56.9,55.0,30.75,South,179,12.0,-999.0,93,-99.99,,,0.00,weatherlink.com 1.10,2013-03-16 10:08:00,
2013-03-16 05:23:00,56.9,55.0,30.75,SSW,207,6.0,-999.0,93,-99.99,,,0.00,weatherlink.com 1.10,2013-03-16 10:23:00,
2013-03-16 05:38:00,56.9,55.0,30.75,SSW,200,6.0,-999.0,93,-99.99,,,0.00,weatherlink.com 1.10,2013-03-16 10:38:00,
2013-03-16 05:59:00,56.9,55.0,30.75,SW,214,5.0,-999.0,93,-99.99,,,0.00,weatherlink.com 1.10,2013-03-16 10:59:00,
2013-03-16 06:08:00,56.9,55.0,30.75,South,183,5.0,-999.0,93,-99.99,,,0.00,weatherlink.com 1.10,2013-03-16 11:08:00,
2013-03-16 06:23:00,56.8,55.0,30.75,SSW,212,6.0,-999.0,93,-99.99,,,0.00,weatherlink.com 1.10,2013-03-16 11:23:00,
2013-03-16 06:38:00,56.5,55.0,30.75,South,177,3.0,-999.0,93,-99.99,,,0.00,weatherlink.com 1.10,2013-03-16 11:38:00,
2013-03-16 06:59:00,56.5,55.0,30.75,SSW,211,4.0,-999.0,93,-99.99,,,0.00,weatherlink.com 1.10,2013-03-16 11:59:00,
2013-03-16 07:08:00,56.5,55.0,30.75,South,188,1.0,-999.0,93,-99.99,,,0.00,weatherlink.com 1.10,2013-03-16 12:08:00,
2013-03-16 07:23:00,56.4,55.0,30.75,SSW,199,2.0,-999.0,93,-99.99,,,0.00,weatherlink.com 1.10,2013-03-16 12:23:00,
2013-03-16 07:38:00,56.4,55.0,30.75,South,176,4.0,-999.0,93,-99.99,,,0.00,weatherlink.com 1.10,2013-03-16 12:38:00,
2013-03-16 07:59:00,56.8,55.0,30.75,SW,215,0.0,-999.0,93,-99.99,,,0.00,weatherlink.com 1.10,2013-03-16 12:59:00,
2013-03-16 08:08:00,57.6,56.0,30.75,South,188,3.0,-999.0,93,-99.99,,,0.00,weatherlink.com 1.10,2013-03-16 13:08:00,
2013-03-16 08:23:00,58.6,57.0,30.75,South,189,4.0,-999.0,93,-99.99,,,0.00,weatherlink.com 1.10,2013-03-16 13:23:00,
2013-03-16 08:38:00,59.5,57.0,30.75,South,170,6.0,-999.0,92,-99.99,,,0.00,weatherlink.com 1.10,2013-03-16 13:38:00,
2013-03-16 08:59:00,61.2,59.0,30.75,SSW,200,13.0,-999.0,91,-99.99,,,0.00,weatherlink.com 1.10,2013-03-16 13:59:00,
2013-03-16 09:08:00,61.9,59.0,30.74,SSE,168,9.0,-999.0,90,-99.99,,,0.00,weatherlink.com 1.10,2013-03-16 14:08:00,
2013-03-16 09:23:00,63.2,60.0,30.74,SSW,202,9.0,-999.0,89,-99.99,,,0.00,weatherlink.com 1.10,2013-03-16 14:23:00,
2013-03-16 09:38:00,64.5,60.0,30.74,South,184,13.0,-999.0,86,-99.99,,,0.00,weatherlink.com 1.10,2013-03-16 14:38:00,
2013-03-16 09:59:00,65.5,61.0,30.75,SSW,196,11.0,-999.0,84,-99.99,,,0.00,weatherlink.com 1.10,2013-03-16 14:59:00,
2013-03-16 10:08:00,66.0,61.0,30.75,SW,214,12.0,-999.0,83,-99.99,,,0.00,weatherlink.com 1.10,2013-03-16 15:08:00,
2013-03-16 10:23:00,66.7,61.0,30.75,SW,222,19.0,-999.0,81,-99.99,,,0.00,weatherlink.com 1.10,2013-03-16 15:23:00,
2013-03-16 10:38:00,67.5,62.0,30.74,SSW,208,14.0,-999.0,81,-99.99,,,0.00,weatherlink.com 1.10,2013-03-16 15:38:00,
2013-03-16 10:59:00,69.0,62.0,30.74,South,178,12.0,-999.0,77,-99.99,,,0.00,weatherlink.com 1.10,2013-03-16 15:59:00,
2013-03-16 11:09:00,69.8,62.0,30.74,SW,225,14.0,-999.0,75,-99.99,,,0.00,weatherlink.com 1.10,2013-03-16 16:09:00,
2013-03-16 11:24:00,70.5,61.0,30.74,South,189,21.0,-999.0,73,-99.99,,,0.00,weatherlink.com 1.10,2013-03-16 16:24:00,
2013-03-16 11:39:00,72.0,62.0,30.74,South,169,12.0,-999.0,71,-99.99,,,0.00,weatherlink.com 1.10,2013-03-16 16:39:00,
2013-03-16 12:00:00,72.1,62.0,30.74,SW,224,10.0,-999.0,70,-99.99,,,0.00,weatherlink.com 1.10,2013-03-16 17:00:00,
2013-03-16 12:09:00,73.3,61.0,30.73,SSW,202,12.0,-999.0,66,-99.99,,,0.00,weatherlink.com 1.10,2013-03-16 17:09:00,
2013-03-16 12:24:00,74.3,62.0,30.73,South,184,8.0,-999.0,65,-99.99,,,0.00,weatherlink.com 1.10,2013-03-16 17:24:00,
2013-03-16 12:39:00,75.4,61.0,30.72,South,186,9.0,-999.0,61,-99.99,,,0.00,weatherlink.com 1.10,2013-03-16 17:39:00,
2013-03-16 13:00:00,76.0,61.0,30.71,South,182,12.0,-999.0,59,-99.99,,,0.00,weatherlink.com 1.10,2013-03-16 18:00:00,
2013-03-16 13:09:00,76.2,60.0,30.70,SW,219,13.0,-999.0,58,-99.99,,,0.00,weatherlink.com 1.10,2013-03-16 18:09:00,
2013-03-16 13:24:00,77.0,61.0,30.70,SSW,194,8.0,-999.0,58,-99.99,,,0.00,weatherlink.com 1.10,2013-03-16 18:24:00,
2013-03-16 13:39:00,77.6,61.0,30.69,SW,215,10.0,-999.0,56,-99.99,,,0.00,weatherlink.com 1.10,2013-03-16 18:39:00,
2013-03-16 14:00:00,77.9,61.0,30.68,South,177,9.0,-999.0,56,-99.99,,,0.00,weatherlink.com 1.10,2013-03-16 19:00:00,
2013-03-16 14:09:00,78.0,60.0,30.67,South,182,14.0,-999.0,55,-99.99,,,0.00,weatherlink.com 1.10,2013-03-16 19:09:00,
2013-03-16 14:24:00,78.7,60.0,30.66,South,177,11.0,-999.0,53,-99.99,,,0.00,weatherlink.com 1.10,2013-03-16 19:24:00,
2013-03-16 14:39:00,78.4,60.0,30.65,SW,224,13.0,-999.0,53,-99.99,,,0.00,weatherlink.com 1.10,2013-03-16 19:39:00,
2013-03-16 15:00:00,79.6,60.0,30.64,SSW,212,18.0,-999.0,51,-99.99,,,0.00,weatherlink.com 1.10,2013-03-16 20:00:00,
2013-03-16 15:09:00,79.4,58.0,30.63,South,186,10.0,-999.0,48,-99.99,,,0.00,weatherlink.com 1.10,2013-03-16 20:09:00,
2013-03-16 15:24:00,80.2,56.0,30.62,SW,219,12.0,-999.0,44,-99.99,,,0.00,weatherlink.com 1.10,2013-03-16 20:24:00,
2013-03-16 15:39:00,80.3,58.0,30.61,South,188,12.0,-999.0,46,-99.99,,,0.00,weatherlink.com 1.10,2013-03-16 20:39:00,
2013-03-16 16:00:00,80.9,59.0,30.60,South,176,15.0,-999.0,47,-99.99,,,0.00,weatherlink.com 1.10,2013-03-16 21:00:00,
2013-03-16 16:09:00,80.3,59.0,30.60,SW,217,17.0,-999.0,49,-99.99,,,0.00,weatherlink.com 1.10,2013-03-16 21:09:00,
2013-03-16 16:24:00,79.8,59.0,30.59,SSW,193,15.0,-999.0,49,-99.99,,,0.00,weatherlink.com 1.10,2013-03-16 21:24:00,
2013-03-16 16:39:00,79.5,60.0,30.59,South,189,16.0,-999.0,51,-99.99,,,0.00,weatherlink.com 1.10,2013-03-16 21:39:00,
2013-03-16 17:00:00,79.6,59.0,30.58,SSW,194,18.0,-999.0,50,-99.99,,,0.00,weatherlink.com 1.10,2013-03-16 22:00:00,
2013-03-16 17:09:00,79.1,58.0,30.58,SSW,196,21.0,-999.0,49,-99.99,,,0.00,weatherlink.com 1.10,2013-03-16 22:09:00,
2013-03-16 17:24:00,78.9,59.0,30.58,SSE,161,14.0,-999.0,50,-99.99,,,0.00,weatherlink.com 1.10,2013-03-16 22:24:00,
2013-03-16 17:39:00,78.6,58.0,30.58,South,174,7.0,-999.0,49,-99.99,,,0.00,weatherlink.com 1.10,2013-03-16 22:39:00,
2013-03-16 18:00:00,77.9,58.0,30.58,SW,225,8.0,-999.0,50,-99.99,,,0.00,weatherlink.com 1.10,2013-03-16 23:00:00,
2013-03-16 18:09:00,77.6,57.0,30.58,South,188,11.0,-999.0,49,-99.99,,,0.00,weatherlink.com 1.10,2013-03-16 23:09:00,
2013-03-16 18:24:00,76.6,58.0,30.58,South,179,12.0,-999.0,52,-99.99,,,0.00,weatherlink.com 1.10,2013-03-16 23:24:00,
2013-03-16 18:39:00,75.5,58.0,30.59,SSW,205,11.0,-999.0,54,-99.99,,,0.00,weatherlink.com 1.10,2013-03-16 23:39:00,
2013-03-16 19:00:00,74.8,58.0,30.59,SW,229,17.0,-999.0,56,-99.99,,,0.00,weatherlink.com 1.10,2013-03-17 00:00:00,
2013-03-16 19:09:00,74.1,59.0,30.59,SSW,202,11.0,-999.0,59,-99.99,,,0.00,weatherlink.com 1.10,2013-03-17 00:09:00,
2013-03-16 19:24:00,72.8,59.0,30.59,SW,221,14.0,-999.0,63,-99.99,,,0.00,weatherlink.com 1.10,2013-03-17 00:24:00,
2013-03-16 19:39:00,71.9,59.0,30.60,SSW,196,13.0,-999.0,65,-99.99,,,0.00,weatherlink.com 1.10,2013-03-17 00:39:00,
2013-03-16 20:00:00,71.1,60.0,30.61,SSW,196,10.0,-999.0,68,-99.99,,,0.00,weatherlink.com 1.10,2013-03-17 01:00:00,
2013-03-16 20:09:00,70.8,61.0,30.61,South,173,16.0,-999.0,71,-99.99,,,0.00,weatherlink.com 1.10,2013-03-17 01:09:00,
2013-03-16 20:24:00,69.8,61.0,30.61,SSW,194,14.0,-999.0,74,-99.99,,,0.00,weatherlink.com 1.10,2013-03-17 01:24:00,
2013-03-16 20:39:00,69.0,61.0,30.61,South,169,7.0,-999.0,75,-99.99,,,0.00,weatherlink.com 1.10,2013-03-17 01:39:00,
2013-03-16 21:00:00,68.1,61.0,30.62,South,186,9.0,-999.0,77,-99.99,,,0.00,weatherlink.com 1.10,2013-03-17 02:00:00,
2013-03-16 21:09:00,67.4,61.0,30.61,SSW,202,13.0,-999.0,79,-99.99,,,0.00,weatherlink.com 1.10,2013-03-17 02:09:00,
2013-03-16 21:24:00,67.1,61.0,30.62,South,184,7.0,-999.0,80,-99.99,,,0.00,weatherlink.com 1.10,2013-03-17 02:24:00,
2013-03-16 21:39:00,66.7,61.0,30.62,South,182,6.0,-999.0,81,-99.99,,,0.00,weatherlink.com 1.10,2013-03-17 02:39:00,
2013-03-16 22:00:00,66.3,61.0,30.62,South,180,10.0,-999.0,82,-99.99,,,0.00,weatherlink.com 1.10,2013-03-17 03:00:00,
2013-03-16 22:09:00,65.9,61.0,30.63,South,169,8.0,-999.0,83,-99.99,,,0.00,weatherlink.com 1.10,2013-03-17 03:09:00,
2013-03-16 22:24:00,65.5,60.0,30.63,SSW,212,4.0,-999.0,83,-99.99,,,0.00,weatherlink.com 1.10,2013-03-17 03:24:00,
2013-03-16 22:39:00,65.3,60.0,30.63,SSE,167,9.0,-999.0,84,-99.99,,,0.00,weatherlink.com 1.10,2013-03-17 03:39:00,
2013-03-16 23:00:00,66.1,61.0,30.63,South,178,11.0,-999.0,83,-99.99,,,0.00,weatherlink.com 1.10,2013-03-17 04:00:00,
2013-03-16 23:09:00,66.7,61.0,30.64,South,184,14.0,-999.0,81,-99.99,,,0.00,weatherlink.com 1.10,2013-03-17 04:09:00,
2013-03-16 23:24:00,66.5,61.0,30.64,South,169,11.0,-999.0,81,-99.99,,,0.00,weatherlink.com 1.10,2013-03-17 04:24:00,
2013-03-16 23:39:00,65.6,60.0,30.64,South,178,14.0,-999.0,83,-99.99,,,0.00,weatherlink.com 1.10,2013-03-17 04:39:00,